Aviation Digital Data Service (ADDS)

Output produced by METARs form (0416 UTC 26 April 2019)
found at http://www.aviationweather.gov/metar/data/
 
METAR text: KUNV 260355Z AUTO 29006KT 7SM SCT070 SCT080 OVC090 12/11 A2982 RMK AO2 T01160108 401600079
Conditions at: KUNV (STATE COLLEGE , PA, US) observed 0355 UTC 26 April 2019
Temperature: 11.6°C (53°F)
Dewpoint: 10.8°C (51°F) [RH = 95%]
Pressure (altimeter): 29.82 inches Hg (1009.9 mb)
Winds: from the WNW (290 degrees) at 7 MPH (6 knots; 3.1 m/s)
Visibility: 7 miles (11 km)
Ceiling: 9000 feet AGL
Clouds: scattered clouds at 7000 feet AGL
scattered clouds at 8000 feet AGL
overcast cloud deck at 9000 feet AGL
Weather: automated observation with no human augmentation;
there may or may not be significant weather present at this time

METAR text: KUNV 260335Z AUTO 32004KT 10SM SCT075 OVC090 12/10 A2981 RMK AO2 LTG DSNT W T01220097
Conditions at: KUNV (STATE COLLEGE , PA, US) observed 0335 UTC 26 April 2019
Temperature: 12.2°C (54°F)
Dewpoint: 9.7°C (49°F) [RH = 85%]
Pressure (altimeter): 29.81 inches Hg (1009.6 mb)
Winds: from the NW (320 degrees) at 5 MPH (4 knots; 2.1 m/s)
Visibility: 10 or more miles (16+ km)
Ceiling: 9000 feet AGL
Clouds: scattered clouds at 7500 feet AGL
overcast cloud deck at 9000 feet AGL
Weather: automated observation with no human augmentation;
there may or may not be significant weather present at this time

METAR text: KUNV 260315Z AUTO 00000KT 10SM OVC100 12/10 A2982 RMK AO2 T01240101
Conditions at: KUNV (STATE COLLEGE , PA, US) observed 0315 UTC 26 April 2019
Temperature: 12.4°C (54°F)
Dewpoint: 10.1°C (50°F) [RH = 86%]
Pressure (altimeter): 29.82 inches Hg (1009.9 mb)
Winds: calm
Visibility: 10 or more miles (16+ km)
Ceiling: 10000 feet AGL
Clouds: overcast cloud deck at 10000 feet AGL
Weather: automated observation with no human augmentation;
there may or may not be significant weather present at this time

METAR text: KUNV 260256Z AUTO 00000KT 10SM OVC100 12/10 A2984 RMK AO2 T01180100
Conditions at: KUNV (STATE COLLEGE , PA, US) observed 0256 UTC 26 April 2019
Temperature: 11.8°C (53°F)
Dewpoint: 10.0°C (50°F) [RH = 89%]
Pressure (altimeter): 29.84 inches Hg (1010.6 mb)
Winds: calm
Visibility: 10 or more miles (16+ km)
Ceiling: 10000 feet AGL
Clouds: overcast cloud deck at 10000 feet AGL
Weather: automated observation with no human augmentation;
there may or may not be significant weather present at this time

METAR text: KUNV 260236Z AUTO 00000KT 10SM SCT075 BKN100 11/11 A2985 RMK AO2 T01140105
Conditions at: KUNV (STATE COLLEGE , PA, US) observed 0236 UTC 26 April 2019
Temperature: 11.4°C (53°F)
Dewpoint: 10.5°C (51°F) [RH = 94%]
Pressure (altimeter): 29.85 inches Hg (1010.9 mb)
Winds: calm
Visibility: 10 or more miles (16+ km)
Ceiling: 10000 feet AGL
Clouds: scattered clouds at 7500 feet AGL
broken clouds at 10000 feet AGL
Weather: automated observation with no human augmentation;
there may or may not be significant weather present at this time

METAR text: KUNV 260215Z AUTO 34003KT 10SM SCT075 SCT090 12/10 A2985 RMK AO2 T01200104
Conditions at: KUNV (STATE COLLEGE , PA, US) observed 0215 UTC 26 April 2019
Temperature: 12.0°C (54°F)
Dewpoint: 10.4°C (51°F) [RH = 90%]
Pressure (altimeter): 29.85 inches Hg (1010.9 mb)
Winds: from the NNW (340 degrees) at 3 MPH (3 knots; 1.5 m/s)
Visibility: 10 or more miles (16+ km)
Ceiling: at least 12,000 feet AGL
Clouds: scattered clouds at 7500 feet AGL
scattered clouds at 9000 feet AGL
Weather: automated observation with no human augmentation;
there may or may not be significant weather present at this time

METAR text: KUNV 260153Z 00000KT 10SM BKN090 BKN110 12/10 A2986
Conditions at: KUNV (STATE COLLEGE , PA, US) observed 0153 UTC 26 April 2019
Temperature: 12.0°C (54°F)
Dewpoint: 10.0°C (50°F) [RH = 88%]
Pressure (altimeter): 29.86 inches Hg (1011.3 mb)
Winds: calm
Visibility: 10 or more miles (16+ km)
Ceiling: 9000 feet AGL
Clouds: broken clouds at 9000 feet AGL
broken clouds at 11000 feet AGL
Weather: no significant weather observed at this time

METAR text: KUNV 260053Z 00000KT 10SM SCT070 OVC090 13/10 A2986
Conditions at: KUNV (STATE COLLEGE , PA, US) observed 0053 UTC 26 April 2019
Temperature: 13.0°C (55°F)
Dewpoint: 10.0°C (50°F) [RH = 82%]
Pressure (altimeter): 29.86 inches Hg (1011.3 mb)
Winds: calm
Visibility: 10 or more miles (16+ km)
Ceiling: 9000 feet AGL
Clouds: scattered clouds at 7000 feet AGL
overcast cloud deck at 9000 feet AGL
Weather: no significant weather observed at this time

METAR text: KUNV 252353Z 00000KT 10SM SCT047 SCT070 OVC095 14/08 A2986
Conditions at: KUNV (STATE COLLEGE , PA, US) observed 2353 UTC 25 April 2019
Temperature: 14.0°C (57°F)
Dewpoint: 8.0°C (46°F) [RH = 67%]
Pressure (altimeter): 29.86 inches Hg (1011.3 mb)
Winds: calm
Visibility: 10 or more miles (16+ km)
Ceiling: 9500 feet AGL
Clouds: scattered clouds at 4700 feet AGL
scattered clouds at 7000 feet AGL
overcast cloud deck at 9500 feet AGL
Weather: no significant weather observed at this time

METAR text: KUNV 252253Z 18005KT 10SM SCT032 BKN065 OVC070 15/09 A2986
Conditions at: KUNV (STATE COLLEGE , PA, US) observed 2253 UTC 25 April 2019
Temperature: 15.0°C (59°F)
Dewpoint: 9.0°C (48°F) [RH = 67%]
Pressure (altimeter): 29.86 inches Hg (1011.3 mb)
Winds: from the S (180 degrees) at 6 MPH (5 knots; 2.6 m/s)
Visibility: 10 or more miles (16+ km)
Ceiling: 6500 feet AGL
Clouds: scattered clouds at 3200 feet AGL
broken clouds at 6500 feet AGL
overcast cloud deck at 7000 feet AGL
Weather: no significant weather observed at this time

METAR text: KUNV 252153Z 19006KT 10SM BKN070 OVC110 16/08 A2987
Conditions at: KUNV (STATE COLLEGE , PA, US) observed 2153 UTC 25 April 2019
Temperature: 16.0°C (61°F)
Dewpoint: 8.0°C (46°F) [RH = 59%]
Pressure (altimeter): 29.87 inches Hg (1011.6 mb)
Winds: from the S (190 degrees) at 7 MPH (6 knots; 3.1 m/s)
Visibility: 10 or more miles (16+ km)
Ceiling: 7000 feet AGL
Clouds: broken clouds at 7000 feet AGL
overcast cloud deck at 11000 feet AGL
Weather: no significant weather observed at this time

METAR text: KUNV 252053Z COR 00000KT 10SM OVC110 15/08 A2987
Conditions at: KUNV (STATE COLLEGE , PA, US) observed 2053 UTC 25 April 2019
Temperature: 15.0°C (59°F)
Dewpoint: 8.0°C (46°F) [RH = 63%]
Pressure (altimeter): 29.87 inches Hg (1011.6 mb)
Winds: calm
Visibility: 10 or more miles (16+ km)
Ceiling: 11000 feet AGL
Clouds: overcast cloud deck at 11000 feet AGL
Weather: no significant weather observed at this time

METAR text: KUNV 251953Z COR 00000KT 10SM SCT035 OVC070 14/08 A2988
Conditions at: KUNV (STATE COLLEGE , PA, US) observed 1953 UTC 25 April 2019
Temperature: 14.0°C (57°F)
Dewpoint: 8.0°C (46°F) [RH = 67%]
Pressure (altimeter): 29.88 inches Hg (1011.9 mb)
Winds: calm
Visibility: 10 or more miles (16+ km)
Ceiling: 7000 feet AGL
Clouds: scattered clouds at 3500 feet AGL
overcast cloud deck at 7000 feet AGL
Weather: no significant weather observed at this time

METAR text: KUNV 251853Z 00000KT 10SM BKN028 OVC037 13/08 A2989
Conditions at: KUNV (STATE COLLEGE , PA, US) observed 1853 UTC 25 April 2019
Temperature: 13.0°C (55°F)
Dewpoint: 8.0°C (46°F) [RH = 72%]
Pressure (altimeter): 29.89 inches Hg (1012.3 mb)
Winds: calm
Visibility: 10 or more miles (16+ km)
Ceiling: 2800 feet AGL
Clouds: broken clouds at 2800 feet AGL
overcast cloud deck at 3700 feet AGL
Weather: no significant weather observed at this time

METAR text: KUNV 251753Z 00000KT 8SM -DZ BKN026 OVC037 13/07 A2991
Conditions at: KUNV (STATE COLLEGE , PA, US) observed 1753 UTC 25 April 2019
Temperature: 13.0°C (55°F)
Dewpoint: 7.0°C (45°F) [RH = 67%]
Pressure (altimeter): 29.91 inches Hg (1013.0 mb)
Winds: calm
Visibility: 8 miles (13 km)
Ceiling: 2600 feet AGL
Clouds: broken clouds at 2600 feet AGL
overcast cloud deck at 3700 feet AGL
Weather: -DZ  (light drizzle)

METAR text: KUNV 251653Z 23004KT 10SM OVC028 12/06 A2992
Conditions at: KUNV (STATE COLLEGE , PA, US) observed 1653 UTC 25 April 2019
Temperature: 12.0°C (54°F)
Dewpoint: 6.0°C (43°F) [RH = 67%]
Pressure (altimeter): 29.92 inches Hg (1013.3 mb)
Winds: from the SW (230 degrees) at 5 MPH (4 knots; 2.1 m/s)
Visibility: 10 or more miles (16+ km)
Ceiling: 2800 feet AGL
Clouds: overcast cloud deck at 2800 feet AGL
Weather: no significant weather observed at this time

METAR text: KUNV 251553Z 22005KT 10SM OVC030 12/06 A2993
Conditions at: KUNV (STATE COLLEGE , PA, US) observed 1553 UTC 25 April 2019
Temperature: 12.0°C (54°F)
Dewpoint: 6.0°C (43°F) [RH = 67%]
Pressure (altimeter): 29.93 inches Hg (1013.6 mb)
Winds: from the SW (220 degrees) at 6 MPH (5 knots; 2.6 m/s)
Visibility: 10 or more miles (16+ km)
Ceiling: 3000 feet AGL
Clouds: overcast cloud deck at 3000 feet AGL
Weather: no significant weather observed at this time

METAR text: KUNV 251453Z 00000KT 10SM OVC038 12/05 A2995
Conditions at: KUNV (STATE COLLEGE , PA, US) observed 1453 UTC 25 April 2019
Temperature: 12.0°C (54°F)
Dewpoint: 5.0°C (41°F) [RH = 62%]
Pressure (altimeter): 29.95 inches Hg (1014.3 mb)
Winds: calm
Visibility: 10 or more miles (16+ km)
Ceiling: 3800 feet AGL
Clouds: overcast cloud deck at 3800 feet AGL
Weather: no significant weather observed at this time

METAR text: KUNV 251353Z 00000KT 10SM -RA BKN050 OVC120 11/05 A2995
Conditions at: KUNV (STATE COLLEGE , PA, US) observed 1353 UTC 25 April 2019
Temperature: 11.0°C (52°F)
Dewpoint: 5.0°C (41°F) [RH = 66%]
Pressure (altimeter): 29.95 inches Hg (1014.3 mb)
Winds: calm
Visibility: 10 or more miles (16+ km)
Ceiling: 5000 feet AGL
Clouds: broken clouds at 5000 feet AGL
overcast cloud deck at 12000 feet AGL
Weather: -RA  (light rain)

METAR text: KUNV 251253Z 00000KT 10SM BKN070 BKN100 10/04 A2995
Conditions at: KUNV (STATE COLLEGE , PA, US) observed 1253 UTC 25 April 2019
Temperature: 10.0°C (50°F)
Dewpoint: 4.0°C (39°F) [RH = 66%]
Pressure (altimeter): 29.95 inches Hg (1014.3 mb)
Winds: calm
Visibility: 10 or more miles (16+ km)
Ceiling: 7000 feet AGL
Clouds: broken clouds at 7000 feet AGL
broken clouds at 10000 feet AGL
Weather: no significant weather observed at this time

METAR text: KUNV 251153Z 00000KT 10SM SCT080 09/05 A2995
Conditions at: KUNV (STATE COLLEGE , PA, US) observed 1153 UTC 25 April 2019
Temperature: 9.0°C (48°F)
Dewpoint: 5.0°C (41°F) [RH = 76%]
Pressure (altimeter): 29.95 inches Hg (1014.3 mb)
Winds: calm
Visibility: 10 or more miles (16+ km)
Ceiling: at least 12,000 feet AGL
Clouds: scattered clouds at 8000 feet AGL
Weather: no significant weather observed at this time

METAR text: KUNV 251053Z 00000KT 10SM SCT070 08/03 A2993
Conditions at: KUNV (STATE COLLEGE , PA, US) observed 1053 UTC 25 April 2019
Temperature: 8.0°C (46°F)
Dewpoint: 3.0°C (37°F) [RH = 71%]
Pressure (altimeter): 29.93 inches Hg (1013.6 mb)
Winds: calm
Visibility: 10 or more miles (16+ km)
Ceiling: at least 12,000 feet AGL
Clouds: scattered clouds at 7000 feet AGL
Weather: no significant weather observed at this time

METAR text: KUNV 250953Z 00000KT 10SM SCT070 09/03 A2992
Conditions at: KUNV (STATE COLLEGE , PA, US) observed 0953 UTC 25 April 2019
Temperature: 9.0°C (48°F)
Dewpoint: 3.0°C (37°F) [RH = 66%]
Pressure (altimeter): 29.92 inches Hg (1013.3 mb)
Winds: calm
Visibility: 10 or more miles (16+ km)
Ceiling: at least 12,000 feet AGL
Clouds: scattered clouds at 7000 feet AGL
Weather: no significant weather observed at this time

METAR text: KUNV 250935Z AUTO 00000KT 10SM BKN070 09/04 A2992 RMK AO2 T00860036
Conditions at: KUNV (STATE COLLEGE , PA, US) observed 0935 UTC 25 April 2019
Temperature: 8.6°C (47°F)
Dewpoint: 3.6°C (38°F) [RH = 71%]
Pressure (altimeter): 29.92 inches Hg (1013.3 mb)
Winds: calm
Visibility: 10 or more miles (16+ km)
Ceiling: 7000 feet AGL
Clouds: broken clouds at 7000 feet AGL
Weather: automated observation with no human augmentation;
there may or may not be significant weather present at this time

METAR text: KUNV 250915Z AUTO 00000KT 10SM BKN070 09/03 A2992 RMK AO2 T00870031
Conditions at: KUNV (STATE COLLEGE , PA, US) observed 0915 UTC 25 April 2019
Temperature: 8.7°C (48°F)
Dewpoint: 3.1°C (38°F) [RH = 68%]
Pressure (altimeter): 29.92 inches Hg (1013.3 mb)
Winds: calm
Visibility: 10 or more miles (16+ km)
Ceiling: 7000 feet AGL
Clouds: broken clouds at 7000 feet AGL
Weather: automated observation with no human augmentation;
there may or may not be significant weather present at this time

METAR text: KUNV 250855Z AUTO 00000KT 10SM SCT070 08/03 A2991 RMK AO2 T00830027
Conditions at: KUNV (STATE COLLEGE , PA, US) observed 0855 UTC 25 April 2019
Temperature: 8.3°C (47°F)
Dewpoint: 2.7°C (37°F) [RH = 68%]
Pressure (altimeter): 29.91 inches Hg (1013.0 mb)
Winds: calm
Visibility: 10 or more miles (16+ km)
Ceiling: at least 12,000 feet AGL
Clouds: scattered clouds at 7000 feet AGL
Weather: automated observation with no human augmentation;
there may or may not be significant weather present at this time

METAR text: KUNV 250836Z AUTO 00000KT 10SM CLR 10/02 A2991 RMK AO2 T00950019
Conditions at: KUNV (STATE COLLEGE , PA, US) observed 0836 UTC 25 April 2019
Temperature: 9.5°C (49°F)
Dewpoint: 1.9°C (35°F) [RH = 59%]
Pressure (altimeter): 29.91 inches Hg (1013.0 mb)
Winds: calm
Visibility: 10 or more miles (16+ km)
Ceiling: at least 12,000 feet AGL
Clouds: sky clear below 12,000 feet AGL
Weather: automated observation with no human augmentation;
there may or may not be significant weather present at this time

METAR text: KUNV 250816Z AUTO 00000KT 10SM CLR 10/02 A2991 RMK AO2 T00970021
Conditions at: KUNV (STATE COLLEGE , PA, US) observed 0816 UTC 25 April 2019
Temperature: 9.7°C (49°F)
Dewpoint: 2.1°C (36°F) [RH = 59%]
Pressure (altimeter): 29.91 inches Hg (1013.0 mb)
Winds: calm
Visibility: 10 or more miles (16+ km)
Ceiling: at least 12,000 feet AGL
Clouds: sky clear below 12,000 feet AGL
Weather: automated observation with no human augmentation;
there may or may not be significant weather present at this time

METAR text: KUNV 250755Z AUTO 00000KT 10SM CLR 09/03 A2991 RMK AO2 T00860026
Conditions at: KUNV (STATE COLLEGE , PA, US) observed 0755 UTC 25 April 2019
Temperature: 8.6°C (47°F)
Dewpoint: 2.6°C (37°F) [RH = 66%]
Pressure (altimeter): 29.91 inches Hg (1013.0 mb)
Winds: calm
Visibility: 10 or more miles (16+ km)
Ceiling: at least 12,000 feet AGL
Clouds: sky clear below 12,000 feet AGL
Weather: automated observation with no human augmentation;
there may or may not be significant weather present at this time

METAR text: KUNV 250735Z AUTO 00000KT 10SM CLR 08/04 A2990 RMK AO2 T00820035
Conditions at: KUNV (STATE COLLEGE , PA, US) observed 0735 UTC 25 April 2019
Temperature: 8.2°C (47°F)
Dewpoint: 3.5°C (38°F) [RH = 72%]
Pressure (altimeter): 29.90 inches Hg (1012.6 mb)
Winds: calm
Visibility: 10 or more miles (16+ km)
Ceiling: at least 12,000 feet AGL
Clouds: sky clear below 12,000 feet AGL
Weather: automated observation with no human augmentation;
there may or may not be significant weather present at this time

METAR text: KUNV 250716Z AUTO 00000KT 10SM CLR 09/03 A2990 RMK AO2 T00900030
Conditions at: KUNV (STATE COLLEGE , PA, US) observed 0716 UTC 25 April 2019
Temperature: 9.0°C (48°F)
Dewpoint: 3.0°C (37°F) [RH = 66%]
Pressure (altimeter): 29.90 inches Hg (1012.6 mb)
Winds: calm
Visibility: 10 or more miles (16+ km)
Ceiling: at least 12,000 feet AGL
Clouds: sky clear below 12,000 feet AGL
Weather: automated observation with no human augmentation;
there may or may not be significant weather present at this time

METAR text: KUNV 250655Z AUTO 35003KT 10SM CLR 11/02 A2990 RMK AO2 T01070016
Conditions at: KUNV (STATE COLLEGE , PA, US) observed 0655 UTC 25 April 2019
Temperature: 10.7°C (51°F)
Dewpoint: 1.6°C (35°F) [RH = 53%]
Pressure (altimeter): 29.90 inches Hg (1012.6 mb)
Winds: from the N (350 degrees) at 3 MPH (3 knots; 1.5 m/s)
Visibility: 10 or more miles (16+ km)
Ceiling: at least 12,000 feet AGL
Clouds: sky clear below 12,000 feet AGL
Weather: automated observation with no human augmentation;
there may or may not be significant weather present at this time

METAR text: KUNV 250635Z AUTO 00000KT 10SM CLR 11/02 A2991 RMK AO2 T01120019
Conditions at: KUNV (STATE COLLEGE , PA, US) observed 0635 UTC 25 April 2019
Temperature: 11.2°C (52°F)
Dewpoint: 1.9°C (35°F) [RH = 53%]
Pressure (altimeter): 29.91 inches Hg (1013.0 mb)
Winds: calm
Visibility: 10 or more miles (16+ km)
Ceiling: at least 12,000 feet AGL
Clouds: sky clear below 12,000 feet AGL
Weather: automated observation with no human augmentation;
there may or may not be significant weather present at this time

METAR text: KUNV 250615Z AUTO 00000KT 10SM SCT110 11/02 A2991 RMK AO2 T01090022
Conditions at: KUNV (STATE COLLEGE , PA, US) observed 0615 UTC 25 April 2019
Temperature: 10.9°C (52°F)
Dewpoint: 2.2°C (36°F) [RH = 55%]
Pressure (altimeter): 29.91 inches Hg (1013.0 mb)
Winds: calm
Visibility: 10 or more miles (16+ km)
Ceiling: at least 12,000 feet AGL
Clouds: scattered clouds at 11000 feet AGL
Weather: automated observation with no human augmentation;
there may or may not be significant weather present at this time

METAR text: KUNV 250556Z AUTO 32005KT 10SM SCT110 11/03 A2991 RMK AO2 T01070025 10146 20103
Conditions at: KUNV (STATE COLLEGE , PA, US) observed 0556 UTC 25 April 2019
Temperature: 10.7°C (51°F)
Dewpoint: 2.5°C (36°F) [RH = 57%]
Pressure (altimeter): 29.91 inches Hg (1013.0 mb)
Winds: from the NW (320 degrees) at 6 MPH (5 knots; 2.6 m/s)
Visibility: 10 or more miles (16+ km)
Ceiling: at least 12,000 feet AGL
Clouds: scattered clouds at 11000 feet AGL
Weather: automated observation with no human augmentation;
there may or may not be significant weather present at this time

METAR text: KUNV 250536Z AUTO 00000KT 10SM CLR 10/03 A2990 RMK AO2 T01030027
Conditions at: KUNV (STATE COLLEGE , PA, US) observed 0536 UTC 25 April 2019
Temperature: 10.3°C (51°F)
Dewpoint: 2.7°C (37°F) [RH = 59%]
Pressure (altimeter): 29.90 inches Hg (1012.6 mb)
Winds: calm
Visibility: 10 or more miles (16+ km)
Ceiling: at least 12,000 feet AGL
Clouds: sky clear below 12,000 feet AGL
Weather: automated observation with no human augmentation;
there may or may not be significant weather present at this time

METAR text: KUNV 250515Z AUTO 00000KT 10SM CLR 11/02 A2991 RMK AO2 T01100019
Conditions at: KUNV (STATE COLLEGE , PA, US) observed 0515 UTC 25 April 2019
Temperature: 11.0°C (52°F)
Dewpoint: 1.9°C (35°F) [RH = 53%]
Pressure (altimeter): 29.91 inches Hg (1013.0 mb)
Winds: calm
Visibility: 10 or more miles (16+ km)
Ceiling: at least 12,000 feet AGL
Clouds: sky clear below 12,000 feet AGL
Weather: automated observation with no human augmentation;
there may or may not be significant weather present at this time

METAR text: KUNV 250455Z AUTO 00000KT 10SM CLR 11/02 A2993 RMK AO2 T01110021
Conditions at: KUNV (STATE COLLEGE , PA, US) observed 0455 UTC 25 April 2019
Temperature: 11.1°C (52°F)
Dewpoint: 2.1°C (36°F) [RH = 54%]
Pressure (altimeter): 29.93 inches Hg (1013.6 mb)
Winds: calm
Visibility: 10 or more miles (16+ km)
Ceiling: at least 12,000 feet AGL
Clouds: sky clear below 12,000 feet AGL
Weather: automated observation with no human augmentation;
there may or may not be significant weather present at this time

METAR text: KUNV 250435Z AUTO 34003KT 10SM CLR 12/01 A2994 RMK AO2 T01230014
Conditions at: KUNV (STATE COLLEGE , PA, US) observed 0435 UTC 25 April 2019
Temperature: 12.3°C (54°F)
Dewpoint: 1.4°C (35°F) [RH = 47%]
Pressure (altimeter): 29.94 inches Hg (1014.0 mb)
Winds: from the NNW (340 degrees) at 3 MPH (3 knots; 1.5 m/s)
Visibility: 10 or more miles (16+ km)
Ceiling: at least 12,000 feet AGL
Clouds: sky clear below 12,000 feet AGL
Weather: automated observation with no human augmentation;
there may or may not be significant weather present at this time

METAR text: KUNV 250416Z AUTO 35005KT 10SM CLR 12/01 A2993 RMK AO2 T01230014
Conditions at: KUNV (STATE COLLEGE , PA, US) observed 0416 UTC 25 April 2019
Temperature: 12.3°C (54°F)
Dewpoint: 1.4°C (35°F) [RH = 47%]
Pressure (altimeter): 29.93 inches Hg (1013.6 mb)
Winds: from the N (350 degrees) at 6 MPH (5 knots; 2.6 m/s)
Visibility: 10 or more miles (16+ km)
Ceiling: at least 12,000 feet AGL
Clouds: sky clear below 12,000 feet AGL
Weather: automated observation with no human augmentation;
there may or may not be significant weather present at this time

METAR text: KUNV 250356Z AUTO 32005KT 10SM CLR 13/01 A2993 RMK AO2 T01250011 401810077
Conditions at: KUNV (STATE COLLEGE , PA, US) observed 0356 UTC 25 April 2019
Temperature: 12.5°C (54°F)
Dewpoint: 1.1°C (34°F) [RH = 46%]
Pressure (altimeter): 29.93 inches Hg (1013.6 mb)
Winds: from the NW (320 degrees) at 6 MPH (5 knots; 2.6 m/s)
Visibility: 10 or more miles (16+ km)
Ceiling: at least 12,000 feet AGL
Clouds: sky clear below 12,000 feet AGL
Weather: automated observation with no human augmentation;
there may or may not be significant weather present at this time

METAR text: KUNV 250335Z AUTO 31003KT 10SM CLR 13/01 A2994 RMK AO2 T01270013
Conditions at: KUNV (STATE COLLEGE , PA, US) observed 0335 UTC 25 April 2019
Temperature: 12.7°C (55°F)
Dewpoint: 1.3°C (34°F) [RH = 46%]
Pressure (altimeter): 29.94 inches Hg (1014.0 mb)
Winds: from the NW (310 degrees) at 3 MPH (3 knots; 1.5 m/s)
Visibility: 10 or more miles (16+ km)
Ceiling: at least 12,000 feet AGL
Clouds: sky clear below 12,000 feet AGL
Weather: automated observation with no human augmentation;
there may or may not be significant weather present at this time

METAR text: KUNV 250315Z AUTO 27007KT 10SM CLR 13/02 A2993 RMK AO2 T01260016
Conditions at: KUNV (STATE COLLEGE , PA, US) observed 0315 UTC 25 April 2019
Temperature: 12.6°C (55°F)
Dewpoint: 1.6°C (35°F) [RH = 47%]
Pressure (altimeter): 29.93 inches Hg (1013.6 mb)
Winds: from the W (270 degrees) at 8 MPH (7 knots; 3.6 m/s)
Visibility: 10 or more miles (16+ km)
Ceiling: at least 12,000 feet AGL
Clouds: sky clear below 12,000 feet AGL
Weather: automated observation with no human augmentation;
there may or may not be significant weather present at this time

METAR text: KUNV 250256Z AUTO 25005KT 10SM CLR 13/02 A2993 RMK AO2 T01250017
Conditions at: KUNV (STATE COLLEGE , PA, US) observed 0256 UTC 25 April 2019
Temperature: 12.5°C (54°F)
Dewpoint: 1.7°C (35°F) [RH = 48%]
Pressure (altimeter): 29.93 inches Hg (1013.6 mb)
Winds: from the WSW (250 degrees) at 6 MPH (5 knots; 2.6 m/s)
Visibility: 10 or more miles (16+ km)
Ceiling: at least 12,000 feet AGL
Clouds: sky clear below 12,000 feet AGL
Weather: automated observation with no human augmentation;
there may or may not be significant weather present at this time

METAR text: KUNV 250236Z AUTO 27003KT 10SM CLR 12/02 A2992 RMK AO2 T01230018
Conditions at: KUNV (STATE COLLEGE , PA, US) observed 0236 UTC 25 April 2019
Temperature: 12.3°C (54°F)
Dewpoint: 1.8°C (35°F) [RH = 49%]
Pressure (altimeter): 29.92 inches Hg (1013.3 mb)
Winds: from the W (270 degrees) at 3 MPH (3 knots; 1.5 m/s)
Visibility: 10 or more miles (16+ km)
Ceiling: at least 12,000 feet AGL
Clouds: sky clear below 12,000 feet AGL
Weather: automated observation with no human augmentation;
there may or may not be significant weather present at this time

METAR text: KUNV 250215Z AUTO 27005KT 10SM CLR 13/02 A2993 RMK AO2 T01260016
Conditions at: KUNV (STATE COLLEGE , PA, US) observed 0215 UTC 25 April 2019
Temperature: 12.6°C (55°F)
Dewpoint: 1.6°C (35°F) [RH = 47%]
Pressure (altimeter): 29.93 inches Hg (1013.6 mb)
Winds: from the W (270 degrees) at 6 MPH (5 knots; 2.6 m/s)
Visibility: 10 or more miles (16+ km)
Ceiling: at least 12,000 feet AGL
Clouds: sky clear below 12,000 feet AGL
Weather: automated observation with no human augmentation;
there may or may not be significant weather present at this time

METAR text: KUNV 250153Z 29006KT 10SM SKC 13/01 A2993
Conditions at: KUNV (STATE COLLEGE , PA, US) observed 0153 UTC 25 April 2019
Temperature: 13.0°C (55°F)
Dewpoint: 1.0°C (34°F) [RH = 44%]
Pressure (altimeter): 29.93 inches Hg (1013.6 mb)
Winds: from the WNW (290 degrees) at 7 MPH (6 knots; 3.1 m/s)
Visibility: 10 or more miles (16+ km)
Ceiling: at least 12,000 feet AGL
Clouds: clear skies
Weather: no significant weather observed at this time

METAR text: KUNV 250053Z 26006KT 10SM SKC 13/01 A2990
Conditions at: KUNV (STATE COLLEGE , PA, US) observed 0053 UTC 25 April 2019
Temperature: 13.0°C (55°F)
Dewpoint: 1.0°C (34°F) [RH = 44%]
Pressure (altimeter): 29.90 inches Hg (1012.6 mb)
Winds: from the W (260 degrees) at 7 MPH (6 knots; 3.1 m/s)
Visibility: 10 or more miles (16+ km)
Ceiling: at least 12,000 feet AGL
Clouds: clear skies
Weather: no significant weather observed at this time

METAR text: KUNV 242353Z 28006KT 10SM SKC 15/01 A2989
Conditions at: KUNV (STATE COLLEGE , PA, US) observed 2353 UTC 24 April 2019
Temperature: 15.0°C (59°F)
Dewpoint: 1.0°C (34°F) [RH = 39%]
Pressure (altimeter): 29.89 inches Hg (1012.3 mb)
Winds: from the W (280 degrees) at 7 MPH (6 knots; 3.1 m/s)
Visibility: 10 or more miles (16+ km)
Ceiling: at least 12,000 feet AGL
Clouds: clear skies
Weather: no significant weather observed at this time

METAR text: KUNV 242253Z 28006KT 10SM SKC 16/02 A2989
Conditions at: KUNV (STATE COLLEGE , PA, US) observed 2253 UTC 24 April 2019
Temperature: 16.0°C (61°F)
Dewpoint: 2.0°C (36°F) [RH = 39%]
Pressure (altimeter): 29.89 inches Hg (1012.3 mb)
Winds: from the W (280 degrees) at 7 MPH (6 knots; 3.1 m/s)
Visibility: 10 or more miles (16+ km)
Ceiling: at least 12,000 feet AGL
Clouds: clear skies
Weather: no significant weather observed at this time

METAR text: KUNV 242153Z 28008G15KT 10SM SKC 17/01 A2988
Conditions at: KUNV (STATE COLLEGE , PA, US) observed 2153 UTC 24 April 2019
Temperature: 17.0°C (63°F)
Dewpoint: 1.0°C (34°F) [RH = 34%]
Pressure (altimeter): 29.88 inches Hg (1011.9 mb)
Winds: from the W (280 degrees) at 9 MPH (8 knots; 4.1 m/s)
gusting to 17 MPH (15 knots; 7.7 m/s)
Visibility: 10 or more miles (16+ km)
Ceiling: at least 12,000 feet AGL
Clouds: clear skies
Weather: no significant weather observed at this time

METAR text: KUNV 242053Z 29009KT 10SM SKC 17/02 A2987
Conditions at: KUNV (STATE COLLEGE , PA, US) observed 2053 UTC 24 April 2019
Temperature: 17.0°C (63°F)
Dewpoint: 2.0°C (36°F) [RH = 36%]
Pressure (altimeter): 29.87 inches Hg (1011.6 mb)
Winds: from the WNW (290 degrees) at 10 MPH (9 knots; 4.6 m/s)
Visibility: 10 or more miles (16+ km)
Ceiling: at least 12,000 feet AGL
Clouds: clear skies
Weather: no significant weather observed at this time

METAR text: KUNV 241953Z 27013KT 10SM SKC 18/01 A2987
Conditions at: KUNV (STATE COLLEGE , PA, US) observed 1953 UTC 24 April 2019
Temperature: 18.0°C (64°F)
Dewpoint: 1.0°C (34°F) [RH = 32%]
Pressure (altimeter): 29.87 inches Hg (1011.6 mb)
Winds: from the W (270 degrees) at 15 MPH (13 knots; 6.7 m/s)
Visibility: 10 or more miles (16+ km)
Ceiling: at least 12,000 feet AGL
Clouds: clear skies
Weather: no significant weather observed at this time

METAR text: KUNV 241853Z 24012G18KT 10SM SKC 17/03 A2989
Conditions at: KUNV (STATE COLLEGE , PA, US) observed 1853 UTC 24 April 2019
Temperature: 17.0°C (63°F)
Dewpoint: 3.0°C (37°F) [RH = 39%]
Pressure (altimeter): 29.89 inches Hg (1012.3 mb)
Winds: from the WSW (240 degrees) at 14 MPH (12 knots; 6.2 m/s)
gusting to 21 MPH (18 knots; 9.3 m/s)
Visibility: 10 or more miles (16+ km)
Ceiling: at least 12,000 feet AGL
Clouds: clear skies
Weather: no significant weather observed at this time

METAR text: KUNV 241753Z 28012KT 10SM SKC 16/03 A2990
Conditions at: KUNV (STATE COLLEGE , PA, US) observed 1753 UTC 24 April 2019
Temperature: 16.0°C (61°F)
Dewpoint: 3.0°C (37°F) [RH = 42%]
Pressure (altimeter): 29.90 inches Hg (1012.6 mb)
Winds: from the W (280 degrees) at 14 MPH (12 knots; 6.2 m/s)
Visibility: 10 or more miles (16+ km)
Ceiling: at least 12,000 feet AGL
Clouds: clear skies
Weather: no significant weather observed at this time

METAR text: KUNV 241653Z 28010G18KT 10SM SKC 15/03 A2992
Conditions at: KUNV (STATE COLLEGE , PA, US) observed 1653 UTC 24 April 2019
Temperature: 15.0°C (59°F)
Dewpoint: 3.0°C (37°F) [RH = 44%]
Pressure (altimeter): 29.92 inches Hg (1013.3 mb)
Winds: from the W (280 degrees) at 12 MPH (10 knots; 5.1 m/s)
gusting to 21 MPH (18 knots; 9.3 m/s)
Visibility: 10 or more miles (16+ km)
Ceiling: at least 12,000 feet AGL
Clouds: clear skies
Weather: no significant weather observed at this time

Forecast for: KUNV (STATE COLLEGE , PA, US)
Text: KUNV 260320Z 2603/2624 14004KT P6SM VCSH OVC080
Forecast period: 0300 to 0700 UTC 26 April 2019
Forecast type: FROM: standard forecast or significant change
Winds: from the SE (140 degrees) at 5 MPH (4 knots; 2.1 m/s)
Visibility: 6 or more miles 10+ km)
Ceiling: 8000 feet AGL
Clouds: overcast cloud deck at 8000 feet AGL
Weather: VCSH  (showers in vicinity)
Text: FM260700 15007KT P6SM VCSH OVC015 WS020/18042KT
Forecast period: 0700 to 1300 UTC 26 April 2019
Forecast type: FROM: standard forecast or significant change
Winds: from the SSE (150 degrees) at 8 MPH (7 knots; 3.6 m/s)
Visibility: 6 or more miles 10+ km)
Ceiling: 1500 feet AGL
Clouds: overcast cloud deck at 1500 feet AGL
Wind Shear: at 2000 feet ( 610 m) AGL, from the S (180 degrees) at 48 MPH (42 knots; 21.8 m/s)
Weather: VCSH  (showers in vicinity)
Text: FM261300 17010G17KT P6SM VCSH OVC015
Forecast period: 1300 to 1700 UTC 26 April 2019
Forecast type: FROM: standard forecast or significant change
Winds: from the S (170 degrees) at 12 MPH (10 knots; 5.1 m/s)
gusting to 20 MPH (17 knots; 8.7 m/s)
Visibility: 6 or more miles 10+ km)
Ceiling: 1500 feet AGL
Clouds: overcast cloud deck at 1500 feet AGL
Weather: VCSH  (showers in vicinity)
Text: FM261700 19011G20KT P6SM VCSH BKN025
Forecast period: 1700 to 1900 UTC 26 April 2019
Forecast type: FROM: standard forecast or significant change
Winds: from the S (190 degrees) at 13 MPH (11 knots; 5.7 m/s)
gusting to 23 MPH (20 knots; 10.3 m/s)
Visibility: 6 or more miles 10+ km)
Ceiling: 2500 feet AGL
Clouds: broken clouds at 2500 feet AGL
Weather: VCSH  (showers in vicinity)
Text: FM261900 27015G24KT P6SM SCT025 BKN035
Forecast period: 1900 UTC 26 April 2019 to 0000 UTC 27 April 2019
Forecast type: FROM: standard forecast or significant change
Winds: from the W (270 degrees) at 17 MPH (15 knots; 7.7 m/s)
gusting to 28 MPH (24 knots; 12.3 m/s)
Visibility: 6 or more miles 10+ km)
Ceiling: 3500 feet AGL
Clouds: scattered clouds at 2500 feet AGL
broken clouds at 3500 feet AGL
Weather: no significant weather forecast for this period